Tanggu, China
Current Conditions -  °F | °C
As of 11:30 AM on Sunday 25 Jan 2015 (Local Time) from ZBTJ Reporting Station
Clear Clear  
Wind Chill: 32°   Ceiling: Unl
Heat Index: 36°   Visibility: 4mi
Dew Point: 23°   Wind: 4mph
Humidity: 60%   Direction: 340°NNW
Pressure: 30.33"   Gusts: NA
Location:  39°N, 117.67°E
Report Text: ZBTJ 250330Z 34002MPS 6000 NSC 02/M05 Q1027 NOSIG
Loading
Personal Weather Stations






























Interactive Weather Map New forecast layout! Learn more

10-Day Weather Forecast

Advertisements
Track Severe Weather on mobile